sensor_id;sensor_type;location;lat;lon;timestamp;pressure;altitude;pressure_sealevel;temperature;humidity
31183;BME280;17813;0.000;0.000;2023-05-10T00:01:18;98767.41;;;9.35;67.96
31183;BME280;17813;0.000;0.000;2023-05-10T00:03:45;98770.38;;;9.43;67.72
31183;BME280;17813;0.000;0.000;2023-05-10T00:06:12;98763.91;;;9.47;67.58
31183;BME280;17813;0.000;0.000;2023-05-10T00:08:39;98764.47;;;9.52;67.58
31183;BME280;17813;0.000;0.000;2023-05-10T00:11:08;98767.75;;;9.56;67.34
31183;BME280;17813;0.000;0.000;2023-05-10T00:13:36;98753.66;;;9.55;67.25
31183;BME280;17813;0.000;0.000;2023-05-10T00:16:05;98757.03;;;9.57;67.06
31183;BME280;17813;0.000;0.000;2023-05-10T00:18:33;98760.53;;;9.58;67.25
31183;BME280;17813;0.000;0.000;2023-05-10T00:21:00;98759.47;;;9.60;67.32
31183;BME280;17813;0.000;0.000;2023-05-10T00:23:28;98760.75;;;9.67;66.71
31183;BME280;17813;0.000;0.000;2023-05-10T00:25:55;98760.00;;;9.65;67.34
31183;BME280;17813;0.000;0.000;2023-05-10T00:28:24;98752.16;;;9.64;67.52
31183;BME280;17813;0.000;0.000;2023-05-10T00:30:52;98741.69;;;9.62;67.50
31183;BME280;17813;0.000;0.000;2023-05-10T00:33:21;98753.22;;;9.61;67.73
31183;BME280;17813;0.000;0.000;2023-05-10T02:36:04;98692.25;;;8.60;77.94
31183;BME280;17813;0.000;0.000;2023-05-10T02:38:35;98689.75;;;8.71;77.25
31183;BME280;17813;0.000;0.000;2023-05-10T02:41:06;98687.66;;;8.89;75.96
31183;BME280;17813;0.000;0.000;2023-05-10T02:43:38;98693.28;;;8.97;76.03
31183;BME280;17813;0.000;0.000;2023-05-10T02:46:13;98689.72;;;9.11;75.45
31183;BME280;17813;0.000;0.000;2023-05-10T02:48:41;98689.81;;;9.22;74.99
31183;BME280;17813;0.000;0.000;2023-05-10T02:51:12;98688.97;;;9.34;74.58
31183;BME280;17813;0.000;0.000;2023-05-10T02:53:46;98691.31;;;9.51;73.91
31183;BME280;17813;0.000;0.000;2023-05-10T02:56:34;98692.13;;;9.64;73.27
31183;BME280;17813;0.000;0.000;2023-05-10T02:59:02;98685.97;;;9.77;73.22
31183;BME280;17813;0.000;0.000;2023-05-10T03:01:29;98683.28;;;9.89;72.67
31183;BME280;17813;0.000;0.000;2023-05-10T03:03:57;98688.03;;;9.97;72.56
31183;BME280;17813;0.000;0.000;2023-05-10T03:06:25;98682.31;;;10.03;72.53
31183;BME280;17813;0.000;0.000;2023-05-10T03:08:54;98681.63;;;10.12;72.67
31183;BME280;17813;0.000;0.000;2023-05-10T03:11:54;98688.19;;;10.19;71.85
31183;BME280;17813;0.000;0.000;2023-05-10T03:20:12;98687.41;;;10.43;71.98
31183;BME280;17813;0.000;0.000;2023-05-10T03:22:49;98677.72;;;10.54;71.64
31183;BME280;17813;0.000;0.000;2023-05-10T03:25:20;98683.56;;;10.71;70.97
31183;BME280;17813;0.000;0.000;2023-05-10T03:27:48;98676.59;;;10.81;71.04
31183;BME280;17813;0.000;0.000;2023-05-10T03:30:16;98682.91;;;10.91;70.51
31183;BME280;17813;0.000;0.000;2023-05-10T03:32:45;98679.28;;;10.92;70.99
31183;BME280;17813;0.000;0.000;2023-05-10T09:38:13;98897.09;;;14.45;78.60
31183;BME280;17813;0.000;0.000;2023-05-10T09:40:52;98893.94;;;14.40;80.19
31183;BME280;17813;0.000;0.000;2023-05-10T09:43:23;98897.41;;;14.52;78.95
31183;BME280;17813;0.000;0.000;2023-05-10T09:45:50;98901.09;;;14.60;78.50
31183;BME280;17813;0.000;0.000;2023-05-10T09:48:18;98898.94;;;14.54;79.16
31183;BME280;17813;0.000;0.000;2023-05-10T09:50:46;98894.94;;;14.69;80.38
31183;BME280;17813;0.000;0.000;2023-05-10T09:53:23;98900.88;;;14.83;79.93
31183;BME280;17813;0.000;0.000;2023-05-10T09:55:50;98897.69;;;14.98;80.05
31183;BME280;17813;0.000;0.000;2023-05-10T09:58:21;98903.63;;;15.02;78.82
31183;BME280;17813;0.000;0.000;2023-05-10T10:00:49;98899.16;;;15.12;79.29
31183;BME280;17813;0.000;0.000;2023-05-10T10:03:23;98894.81;;;15.30;79.42
31183;BME280;17813;0.000;0.000;2023-05-10T10:05:50;98900.47;;;15.47;78.85
31183;BME280;17813;0.000;0.000;2023-05-10T10:08:21;98902.03;;;15.59;77.62
31183;BME280;17813;0.000;0.000;2023-05-10T10:10:48;98897.44;;;15.70;77.78
31183;BME280;17813;0.000;0.000;2023-05-10T10:13:17;98894.03;;;15.88;78.15
31183;BME280;17813;0.000;0.000;2023-05-10T10:15:44;98899.38;;;15.97;78.47
31183;BME280;17813;0.000;0.000;2023-05-10T10:18:16;98899.94;;;16.11;76.99
31183;BME280;17813;0.000;0.000;2023-05-10T10:20:44;98893.44;;;16.23;77.15
31183;BME280;17813;0.000;0.000;2023-05-10T10:23:20;98891.94;;;16.48;76.48
31183;BME280;17813;0.000;0.000;2023-05-10T10:25:53;98896.56;;;16.55;76.91
31183;BME280;17813;0.000;0.000;2023-05-10T10:28:41;98892.91;;;16.66;75.98
31183;BME280;17813;0.000;0.000;2023-05-10T10:34:17;98901.91;;;16.65;76.25
31183;BME280;17813;0.000;0.000;2023-05-10T12:37:31;98922.25;;;18.81;69.28
31183;BME280;17813;0.000;0.000;2023-05-10T12:40:02;98924.63;;;18.84;68.84
31183;BME280;17813;0.000;0.000;2023-05-10T12:42:31;98919.94;;;18.86;68.03
31183;BME280;17813;0.000;0.000;2023-05-10T12:45:00;98924.44;;;18.77;67.74
31183;BME280;17813;0.000;0.000;2023-05-10T12:47:26;98927.03;;;18.61;69.05
31183;BME280;17813;0.000;0.000;2023-05-10T12:49:54;98927.31;;;18.58;68.89
31183;BME280;17813;0.000;0.000;2023-05-10T12:52:21;98928.75;;;18.70;68.76
31183;BME280;17813;0.000;0.000;2023-05-10T12:54:49;98919.16;;;18.68;68.42
31183;BME280;17813;0.000;0.000;2023-05-10T12:57:19;98936.53;;;18.55;68.49
31183;BME280;17813;0.000;0.000;2023-05-10T12:59:48;98933.31;;;18.52;69.12
31183;BME280;17813;0.000;0.000;2023-05-10T13:02:15;98938.09;;;18.40;69.00
31183;BME280;17813;0.000;0.000;2023-05-10T13:04:45;98935.47;;;18.22;68.97
31183;BME280;17813;0.000;0.000;2023-05-10T13:07:13;98941.81;;;18.04;69.59
31183;BME280;17813;0.000;0.000;2023-05-10T13:09:40;98943.22;;;17.72;70.17
31183;BME280;17813;0.000;0.000;2023-05-10T13:12:09;98950.03;;;17.39;71.35
31183;BME280;17813;0.000;0.000;2023-05-10T13:14:36;98952.31;;;17.34;72.52
31183;BME280;17813;0.000;0.000;2023-05-10T13:17:14;98953.53;;;17.22;72.65
31183;BME280;17813;0.000;0.000;2023-05-10T13:19:42;98946.63;;;17.19;73.32
31183;BME280;17813;0.000;0.000;2023-05-10T13:22:09;98939.19;;;17.13;73.69
31183;BME280;17813;0.000;0.000;2023-05-10T13:24:37;98948.13;;;17.04;74.52
31183;BME280;17813;0.000;0.000;2023-05-10T13:27:03;98956.63;;;16.90;75.76
31183;BME280;17813;0.000;0.000;2023-05-10T13:29:30;98958.38;;;16.81;75.86
31183;BME280;17813;0.000;0.000;2023-05-10T13:31:58;98964.00;;;16.78;76.26
31183;BME280;17813;0.000;0.000;2023-05-10T13:34:25;98957.53;;;16.81;76.28
31183;BME280;17813;0.000;0.000;2023-05-10T13:36:52;98955.94;;;16.88;76.07
31183;BME280;17813;0.000;0.000;2023-05-10T13:39:20;98952.38;;;16.97;76.38
31183;BME280;17813;0.000;0.000;2023-05-10T13:41:49;98952.63;;;17.03;76.56
31183;BME280;17813;0.000;0.000;2023-05-10T13:44:16;98956.50;;;17.19;76.49
31183;BME280;17813;0.000;0.000;2023-05-10T13:46:43;98953.22;;;17.25;75.39
31183;BME280;17813;0.000;0.000;2023-05-10T13:49:11;98951.94;;;17.29;75.53
31183;BME280;17813;0.000;0.000;2023-05-10T13:51:38;98949.78;;;17.32;75.92
31183;BME280;17813;0.000;0.000;2023-05-10T13:54:06;98957.53;;;17.35;76.42
31183;BME280;17813;0.000;0.000;2023-05-10T13:56:33;98960.50;;;17.32;76.90
31183;BME280;17813;0.000;0.000;2023-05-10T13:59:00;98961.91;;;17.36;76.68
31183;BME280;17813;0.000;0.000;2023-05-10T14:01:32;98964.28;;;17.40;76.14
31183;BME280;17813;0.000;0.000;2023-05-10T14:03:59;98963.81;;;17.44;75.77
31183;BME280;17813;0.000;0.000;2023-05-10T14:06:26;98963.97;;;17.43;75.44
31183;BME280;17813;0.000;0.000;2023-05-10T14:08:54;98961.00;;;17.46;75.33
31183;BME280;17813;0.000;0.000;2023-05-10T14:11:22;98960.25;;;17.53;75.11
31183;BME280;17813;0.000;0.000;2023-05-10T14:13:50;98963.91;;;17.52;75.46
31183;BME280;17813;0.000;0.000;2023-05-10T14:16:18;98955.97;;;17.60;75.22
31183;BME280;17813;0.000;0.000;2023-05-10T14:18:46;98955.94;;;17.70;74.99
31183;BME280;17813;0.000;0.000;2023-05-10T14:21:19;98959.16;;;17.74;74.81
31183;BME280;17813;0.000;0.000;2023-05-10T14:23:55;98961.53;;;17.77;74.37
31183;BME280;17813;0.000;0.000;2023-05-10T14:26:28;98956.69;;;17.80;74.24
31183;BME280;17813;0.000;0.000;2023-05-10T14:28:57;98953.84;;;17.82;73.75
31183;BME280;17813;0.000;0.000;2023-05-10T14:31:29;98958.38;;;17.81;74.28
31183;BME280;17813;0.000;0.000;2023-05-10T14:33:57;98958.06;;;17.84;74.44
31183;BME280;17813;0.000;0.000;2023-05-10T14:36:24;98956.00;;;17.96;75.17
31183;BME280;17813;0.000;0.000;2023-05-10T15:37:48;98959.69;;;18.56;71.45
31183;BME280;17813;0.000;0.000;2023-05-10T15:40:16;98959.41;;;18.42;70.72
31183;BME280;17813;0.000;0.000;2023-05-10T15:42:43;98954.22;;;18.40;71.02
31183;BME280;17813;0.000;0.000;2023-05-10T15:45:12;98958.41;;;18.43;70.21
31183;BME280;17813;0.000;0.000;2023-05-10T15:47:39;98955.09;;;18.49;70.35
31183;BME280;17813;0.000;0.000;2023-05-10T15:50:08;98963.97;;;18.23;70.84
31183;BME280;17813;0.000;0.000;2023-05-10T15:52:36;98967.50;;;18.24;71.07
31183;BME280;17813;0.000;0.000;2023-05-10T15:55:07;98968.72;;;18.12;72.16
31183;BME280;17813;0.000;0.000;2023-05-10T15:57:41;98963.28;;;18.04;72.68
31183;BME280;17813;0.000;0.000;2023-05-10T16:00:09;98965.34;;;18.10;72.13
31183;BME280;17813;0.000;0.000;2023-05-10T16:02:39;98964.66;;;18.08;71.77
31183;BME280;17813;0.000;0.000;2023-05-10T16:05:06;98961.81;;;17.91;72.47
31183;BME280;17813;0.000;0.000;2023-05-10T16:07:34;98965.81;;;17.87;72.70
31183;BME280;17813;0.000;0.000;2023-05-10T16:10:01;98960.16;;;17.90;72.41
31183;BME280;17813;0.000;0.000;2023-05-10T16:12:31;98969.19;;;17.89;73.25
31183;BME280;17813;0.000;0.000;2023-05-10T16:14:58;98970.72;;;17.74;73.61
31183;BME280;17813;0.000;0.000;2023-05-10T16:17:25;98969.94;;;17.82;73.23
31183;BME280;17813;0.000;0.000;2023-05-10T16:19:53;98966.34;;;17.91;72.52
31183;BME280;17813;0.000;0.000;2023-05-10T16:22:20;98962.97;;;17.71;72.97
31183;BME280;17813;0.000;0.000;2023-05-10T16:24:48;98972.78;;;17.80;72.34
31183;BME280;17813;0.000;0.000;2023-05-10T16:27:19;98965.81;;;17.87;72.20
31183;BME280;17813;0.000;0.000;2023-05-10T16:29:47;98967.13;;;17.83;71.95
31183;BME280;17813;0.000;0.000;2023-05-10T16:32:14;98973.94;;;17.95;72.18
31183;BME280;17813;0.000;0.000;2023-05-10T16:34:41;98971.78;;;17.99;71.79
31183;BME280;17813;0.000;0.000;2023-05-10T16:37:09;98974.25;;;18.10;71.67
31183;BME280;17813;0.000;0.000;2023-05-10T16:39:36;98983.06;;;18.03;71.94
31183;BME280;17813;0.000;0.000;2023-05-10T16:42:03;98977.53;;;18.04;72.07
31183;BME280;17813;0.000;0.000;2023-05-10T16:44:31;98986.19;;;17.98;72.18
31183;BME280;17813;0.000;0.000;2023-05-10T16:46:58;98988.19;;;17.96;72.55
31183;BME280;17813;0.000;0.000;2023-05-10T16:49:25;98982.81;;;17.78;72.67
31183;BME280;17813;0.000;0.000;2023-05-10T16:51:52;98986.00;;;17.64;73.26
31183;BME280;17813;0.000;0.000;2023-05-10T16:54:20;98992.13;;;17.56;74.11
31183;BME280;17813;0.000;0.000;2023-05-10T16:56:47;98995.78;;;17.55;74.76
31183;BME280;17813;0.000;0.000;2023-05-10T16:59:14;98991.56;;;17.53;74.21
31183;BME280;17813;0.000;0.000;2023-05-10T17:01:42;98996.38;;;17.49;74.28
31183;BME280;17813;0.000;0.000;2023-05-10T17:04:09;98993.06;;;17.38;74.06
31183;BME280;17813;0.000;0.000;2023-05-10T17:06:36;99001.72;;;17.31;74.02
31183;BME280;17813;0.000;0.000;2023-05-10T17:09:03;99006.81;;;17.25;74.22
31183;BME280;17813;0.000;0.000;2023-05-10T17:11:32;99004.88;;;17.17;74.38
31183;BME280;17813;0.000;0.000;2023-05-10T17:14:00;99005.06;;;17.06;75.25
31183;BME280;17813;0.000;0.000;2023-05-10T17:16:28;99017.75;;;17.04;75.20
31183;BME280;17813;0.000;0.000;2023-05-10T17:18:56;99013.69;;;17.00;75.60
31183;BME280;17813;0.000;0.000;2023-05-10T17:21:23;99019.19;;;16.98;75.67
31183;BME280;17813;0.000;0.000;2023-05-10T17:23:50;99017.25;;;16.91;75.57
31183;BME280;17813;0.000;0.000;2023-05-10T17:26:17;99014.75;;;16.80;75.64
31183;BME280;17813;0.000;0.000;2023-05-10T17:28:44;99018.41;;;16.79;75.06
31183;BME280;17813;0.000;0.000;2023-05-10T17:31:11;99017.31;;;16.71;74.54
31183;BME280;17813;0.000;0.000;2023-05-10T17:33:39;99024.34;;;16.63;74.48
31183;BME280;17813;0.000;0.000;2023-05-10T17:36:06;99023.06;;;16.57;74.48
31183;BME280;17813;0.000;0.000;2023-05-10T17:38:33;99027.16;;;16.52;74.68
31183;BME280;17813;0.000;0.000;2023-05-10T17:41:00;99032.25;;;16.45;74.89
31183;BME280;17813;0.000;0.000;2023-05-10T17:43:28;99034.22;;;16.43;74.83
31183;BME280;17813;0.000;0.000;2023-05-10T17:45:55;99039.00;;;16.39;75.26
31183;BME280;17813;0.000;0.000;2023-05-10T17:48:22;99038.16;;;16.39;75.08
31183;BME280;17813;0.000;0.000;2023-05-10T17:50:50;99035.78;;;16.36;75.30
31183;BME280;17813;0.000;0.000;2023-05-10T17:53:17;99040.28;;;16.35;75.23
31183;BME280;17813;0.000;0.000;2023-05-10T17:55:46;99032.41;;;16.34;75.48
31183;BME280;17813;0.000;0.000;2023-05-10T17:58:13;99031.69;;;16.32;75.65
31183;BME280;17813;0.000;0.000;2023-05-10T18:00:40;99034.22;;;16.24;76.27
31183;BME280;17813;0.000;0.000;2023-05-10T18:03:07;99032.41;;;16.24;76.35
31183;BME280;17813;0.000;0.000;2023-05-10T18:05:36;99034.38;;;16.22;76.66
31183;BME280;17813;0.000;0.000;2023-05-10T18:08:04;99034.66;;;16.19;76.92
31183;BME280;17813;0.000;0.000;2023-05-10T18:10:32;99038.31;;;16.18;76.97
31183;BME280;17813;0.000;0.000;2023-05-10T18:12:59;99045.78;;;16.05;77.92
31183;BME280;17813;0.000;0.000;2023-05-10T18:15:33;99041.28;;;16.05;77.97
31183;BME280;17813;0.000;0.000;2023-05-10T18:18:07;99044.94;;;16.04;77.72
31183;BME280;17813;0.000;0.000;2023-05-10T18:20:34;99045.50;;;16.08;78.01
31183;BME280;17813;0.000;0.000;2023-05-10T18:23:01;99038.03;;;16.12;77.83
31183;BME280;17813;0.000;0.000;2023-05-10T18:25:29;99039.72;;;16.13;77.83
31183;BME280;17813;0.000;0.000;2023-05-10T18:27:55;99048.59;;;16.13;77.84
31183;BME280;17813;0.000;0.000;2023-05-10T18:30:22;99049.00;;;16.08;78.46
31183;BME280;17813;0.000;0.000;2023-05-10T18:32:49;99056.75;;;16.02;78.90
31183;BME280;17813;0.000;0.000;2023-05-10T18:35:16;99051.41;;;16.02;78.95
31183;BME280;17813;0.000;0.000;2023-05-10T18:37:43;99058.72;;;16.00;79.19
31183;BME280;17813;0.000;0.000;2023-05-10T19:08:02;99079.41;;;15.58;80.83
31183;BME280;17813;0.000;0.000;2023-05-10T19:47:24;99105.50;;;15.14;83.99
31183;BME280;17813;0.000;0.000;2023-05-10T20:39:08;99116.34;;;14.92;86.18
31183;BME280;17813;0.000;0.000;2023-05-10T20:41:37;99117.06;;;14.94;85.52
31183;BME280;17813;0.000;0.000;2023-05-10T20:44:05;99114.78;;;14.89;86.12
31183;BME280;17813;0.000;0.000;2023-05-10T20:46:33;99112.22;;;14.88;86.05
31183;BME280;17813;0.000;0.000;2023-05-10T20:49:00;99115.63;;;14.90;85.63
31183;BME280;17813;0.000;0.000;2023-05-10T20:51:27;99110.53;;;14.87;85.68
31183;BME280;17813;0.000;0.000;2023-05-10T20:53:56;99108.97;;;14.84;85.70
31183;BME280;17813;0.000;0.000;2023-05-10T20:56:23;99110.34;;;14.78;85.90
31183;BME280;17813;0.000;0.000;2023-05-10T20:58:50;99122.13;;;14.76;85.85
31183;BME280;17813;0.000;0.000;2023-05-10T21:01:18;99117.91;;;14.73;85.48
31183;BME280;17813;0.000;0.000;2023-05-10T21:03:45;99118.88;;;14.72;86.26
31183;BME280;17813;0.000;0.000;2023-05-10T21:06:12;99115.75;;;14.67;86.44
31183;BME280;17813;0.000;0.000;2023-05-10T21:08:39;99116.00;;;14.64;86.55
31183;BME280;17813;0.000;0.000;2023-05-10T21:11:06;99114.91;;;14.67;85.98
31183;BME280;17813;0.000;0.000;2023-05-10T21:13:33;99114.63;;;14.70;86.00
31183;BME280;17813;0.000;0.000;2023-05-10T21:16:00;99114.38;;;14.73;85.65
31183;BME280;17813;0.000;0.000;2023-05-10T21:18:27;99113.53;;;14.72;86.02
31183;BME280;17813;0.000;0.000;2023-05-10T21:20:55;99111.56;;;14.74;85.47
31183;BME280;17813;0.000;0.000;2023-05-10T21:23:22;99111.44;;;14.76;85.72
31183;BME280;17813;0.000;0.000;2023-05-10T21:25:50;99116.66;;;14.77;85.43
31183;BME280;17813;0.000;0.000;2023-05-10T21:28:18;99114.97;;;14.76;85.68
31183;BME280;17813;0.000;0.000;2023-05-10T21:30:46;99117.63;;;14.76;85.67
31183;BME280;17813;0.000;0.000;2023-05-10T21:33:15;99118.47;;;14.77;85.83
31183;BME280;17813;0.000;0.000;2023-05-10T21:35:42;99113.00;;;14.78;85.68
31183;BME280;17813;0.000;0.000;2023-05-10T21:38:09;99113.72;;;14.80;85.36
31183;BME280;17813;0.000;0.000;2023-05-10T21:40:38;99118.22;;;14.80;85.11
31183;BME280;17813;0.000;0.000;2023-05-10T21:43:06;99125.66;;;14.76;85.76
31183;BME280;17813;0.000;0.000;2023-05-10T21:45:36;99119.47;;;14.76;85.65
31183;BME280;17813;0.000;0.000;2023-05-10T21:48:04;99123.81;;;14.77;85.70
31183;BME280;17813;0.000;0.000;2023-05-10T21:50:30;99125.25;;;14.81;85.61
31183;BME280;17813;0.000;0.000;2023-05-10T21:52:58;99120.63;;;14.83;85.50
31183;BME280;17813;0.000;0.000;2023-05-10T21:55:26;99126.56;;;14.87;85.38
31183;BME280;17813;0.000;0.000;2023-05-10T21:57:54;99120.97;;;14.90;85.24
31183;BME280;17813;0.000;0.000;2023-05-10T22:00:25;99121.94;;;14.89;85.51
31183;BME280;17813;0.000;0.000;2023-05-10T22:02:53;99133.13;;;14.83;86.22
31183;BME280;17813;0.000;0.000;2023-05-10T22:05:26;99125.13;;;14.83;85.78
31183;BME280;17813;0.000;0.000;2023-05-10T22:07:55;99126.69;;;14.85;85.83
31183;BME280;17813;0.000;0.000;2023-05-10T22:10:23;99128.38;;;14.86;85.88
31183;BME280;17813;0.000;0.000;2023-05-10T22:12:51;99128.38;;;14.86;85.76
31183;BME280;17813;0.000;0.000;2023-05-10T22:15:18;99128.50;;;14.85;85.88
31183;BME280;17813;0.000;0.000;2023-05-10T22:17:45;99129.94;;;14.89;85.62
31183;BME280;17813;0.000;0.000;2023-05-10T22:20:14;99126.28;;;14.90;85.64
31183;BME280;17813;0.000;0.000;2023-05-10T22:22:43;99122.91;;;14.88;85.38
31183;BME280;17813;0.000;0.000;2023-05-10T22:25:12;99126.56;;;14.87;85.57
31183;BME280;17813;0.000;0.000;2023-05-10T22:27:40;99126.09;;;14.82;86.01
31183;BME280;17813;0.000;0.000;2023-05-10T22:30:07;99128.19;;;14.78;85.80
31183;BME280;17813;0.000;0.000;2023-05-10T22:32:35;99132.22;;;14.72;86.14
31183;BME280;17813;0.000;0.000;2023-05-10T22:35:02;99126.03;;;14.72;86.00
31183;BME280;17813;0.000;0.000;2023-05-10T22:37:30;99132.09;;;14.74;85.58
31183;BME280;17813;0.000;0.000;2023-05-10T22:40:05;99124.22;;;14.72;85.56
31183;BME280;17813;0.000;0.000;2023-05-10T22:42:33;99122.50;;;14.71;85.62
31183;BME280;17813;0.000;0.000;2023-05-10T22:45:00;99127.72;;;14.73;85.26
31183;BME280;17813;0.000;0.000;2023-05-10T22:47:30;99124.47;;;14.69;85.29
31183;BME280;17813;0.000;0.000;2023-05-10T22:49:58;99128.13;;;14.68;85.17
31183;BME280;17813;0.000;0.000;2023-05-10T22:52:26;99132.84;;;14.65;85.29
31183;BME280;17813;0.000;0.000;2023-05-10T22:54:55;99129.34;;;14.64;85.19
31183;BME280;17813;0.000;0.000;2023-05-10T22:57:23;99127.91;;;14.60;85.56
31183;BME280;17813;0.000;0.000;2023-05-10T22:59:52;99123.66;;;14.58;85.18
31183;BME280;17813;0.000;0.000;2023-05-10T23:02:22;99125.38;;;14.59;85.44
31183;BME280;17813;0.000;0.000;2023-05-10T23:04:50;99122.81;;;14.57;85.27
31183;BME280;17813;0.000;0.000;2023-05-10T23:07:19;99132.66;;;14.57;85.08
31183;BME280;17813;0.000;0.000;2023-05-10T23:09:47;99125.75;;;14.54;85.02
31183;BME280;17813;0.000;0.000;2023-05-10T23:12:16;99135.56;;;14.54;85.09
31183;BME280;17813;0.000;0.000;2023-05-10T23:14:45;99137.28;;;14.55;85.40
31183;BME280;17813;0.000;0.000;2023-05-10T23:17:14;99138.13;;;14.55;85.11
31183;BME280;17813;0.000;0.000;2023-05-10T23:19:42;99138.13;;;14.55;85.20
31183;BME280;17813;0.000;0.000;2023-05-10T23:22:10;99134.00;;;14.51;85.23
31183;BME280;17813;0.000;0.000;2023-05-10T23:24:38;99134.28;;;14.48;85.57
31183;BME280;17813;0.000;0.000;2023-05-10T23:27:06;99130.75;;;14.47;85.44
31183;BME280;17813;0.000;0.000;2023-05-10T23:29:32;99136.22;;;14.46;85.35
31183;BME280;17813;0.000;0.000;2023-05-10T23:32:00;99134.41;;;14.46;85.59
31183;BME280;17813;0.000;0.000;2023-05-10T23:34:27;99138.88;;;14.46;85.27
31183;BME280;17813;0.000;0.000;2023-05-10T23:36:58;99132.69;;;14.45;85.26
31183;BME280;17813;0.000;0.000;2023-05-10T23:39:25;99128.22;;;14.46;85.40
31183;BME280;17813;0.000;0.000;2023-05-10T23:41:53;99130.38;;;14.41;85.53
31183;BME280;17813;0.000;0.000;2023-05-10T23:44:20;99124.47;;;14.37;85.37
31183;BME280;17813;0.000;0.000;2023-05-10T23:46:47;99129.19;;;14.34;85.78
31183;BME280;17813;0.000;0.000;2023-05-10T23:49:14;99123.28;;;14.30;85.69
31183;BME280;17813;0.000;0.000;2023-05-10T23:51:43;99134.78;;;14.31;85.94
31183;BME280;17813;0.000;0.000;2023-05-10T23:54:10;99126.06;;;14.29;85.73
31183;BME280;17813;0.000;0.000;2023-05-10T23:56:40;99126.31;;;14.26;86.06
31183;BME280;17813;0.000;0.000;2023-05-10T23:59:07;99118.31;;;14.26;86.00
